sensor_id;sensor_type;location;lat;lon;timestamp;temperature;humidity
67759;SHT31;54562;47.620;18.786;2023-04-03T00:00:01;5.10;70.37
67759;SHT31;54562;47.620;18.786;2023-04-03T00:03:11;5.09;70.48
67759;SHT31;54562;47.620;18.786;2023-04-03T00:06:20;5.07;70.55
67759;SHT31;54562;47.620;18.786;2023-04-03T00:09:28;5.07;70.45
67759;SHT31;54562;47.620;18.786;2023-04-03T00:12:36;5.05;70.31
67759;SHT31;54562;47.620;18.786;2023-04-03T00:15:44;5.03;70.49
67759;SHT31;54562;47.620;18.786;2023-04-03T00:18:52;5.01;70.48
67759;SHT31;54562;47.620;18.786;2023-04-03T00:22:02;5.00;70.58
67759;SHT31;54562;47.620;18.786;2023-04-03T00:25:10;4.98;70.53
67759;SHT31;54562;47.620;18.786;2023-04-03T00:28:18;4.98;70.62
67759;SHT31;54562;47.620;18.786;2023-04-03T00:31:27;4.98;70.58
67759;SHT31;54562;47.620;18.786;2023-04-03T00:34:37;4.97;70.63
67759;SHT31;54562;47.620;18.786;2023-04-03T00:37:45;4.97;70.61
67759;SHT31;54562;47.620;18.786;2023-04-03T00:40:55;4.96;70.44
67759;SHT31;54562;47.620;18.786;2023-04-03T00:47:54;4.91;70.53
67759;SHT31;54562;47.620;18.786;2023-04-03T00:51:05;4.87;70.43
67759;SHT31;54562;47.620;18.786;2023-04-03T00:54:17;4.81;70.65
67759;SHT31;54562;47.620;18.786;2023-04-03T00:57:25;4.74;70.75
67759;SHT31;54562;47.620;18.786;2023-04-03T01:00:35;4.67;70.78
67759;SHT31;54562;47.620;18.786;2023-04-03T01:03:48;4.60;70.83
67759;SHT31;54562;47.620;18.786;2023-04-03T01:06:56;4.53;71.07
67759;SHT31;54562;47.620;18.786;2023-04-03T01:10:09;4.49;71.14
67759;SHT31;54562;47.620;18.786;2023-04-03T01:13:24;4.47;71.22
67759;SHT31;54562;47.620;18.786;2023-04-03T01:16:35;4.45;71.17
67759;SHT31;54562;47.620;18.786;2023-04-03T01:19:43;4.44;71.14
67759;SHT31;54562;47.620;18.786;2023-04-03T01:23:14;4.44;71.16
67759;SHT31;54562;47.620;18.786;2023-04-03T01:26:44;4.43;71.26
67759;SHT31;54562;47.620;18.786;2023-04-03T01:29:52;4.41;71.14
67759;SHT31;54562;47.620;18.786;2023-04-03T01:33:01;4.39;71.19
67759;SHT31;54562;47.620;18.786;2023-04-03T01:36:10;4.37;71.28
67759;SHT31;54562;47.620;18.786;2023-04-03T01:39:24;4.36;71.32
67759;SHT31;54562;47.620;18.786;2023-04-03T01:42:32;4.34;71.40
67759;SHT31;54562;47.620;18.786;2023-04-03T01:45:40;4.32;71.46
67759;SHT31;54562;47.620;18.786;2023-04-03T01:48:49;4.31;71.43
67759;SHT31;54562;47.620;18.786;2023-04-03T01:51:57;4.31;71.34
67759;SHT31;54562;47.620;18.786;2023-04-03T01:55:06;4.30;71.43
67759;SHT31;54562;47.620;18.786;2023-04-03T01:58:15;4.30;71.40
67759;SHT31;54562;47.620;18.786;2023-04-03T02:01:22;4.29;71.37
67759;SHT31;54562;47.620;18.786;2023-04-03T02:04:31;4.25;71.21
67759;SHT31;54562;47.620;18.786;2023-04-03T02:07:39;4.20;71.32
67759;SHT31;54562;47.620;18.786;2023-04-03T02:10:48;4.15;71.45
67759;SHT31;54562;47.620;18.786;2023-04-03T02:13:57;4.08;71.53
67759;SHT31;54562;47.620;18.786;2023-04-03T02:17:08;4.03;71.70
67759;SHT31;54562;47.620;18.786;2023-04-03T02:20:16;3.97;71.68
67759;SHT31;54562;47.620;18.786;2023-04-03T02:23:26;3.91;71.97
67759;SHT31;54562;47.620;18.786;2023-04-03T02:26:34;3.85;72.13
67759;SHT31;54562;47.620;18.786;2023-04-03T02:29:42;3.81;72.25
67759;SHT31;54562;47.620;18.786;2023-04-03T02:32:50;3.76;72.34
67759;SHT31;54562;47.620;18.786;2023-04-03T02:35:58;3.70;72.47
67759;SHT31;54562;47.620;18.786;2023-04-03T02:39:07;3.65;72.60
67759;SHT31;54562;47.620;18.786;2023-04-03T02:42:15;3.59;72.68
67759;SHT31;54562;47.620;18.786;2023-04-03T02:45:23;3.55;72.92
67759;SHT31;54562;47.620;18.786;2023-04-03T02:48:31;3.53;73.09
67759;SHT31;54562;47.620;18.786;2023-04-03T02:51:40;3.50;73.28
67759;SHT31;54562;47.620;18.786;2023-04-03T02:54:49;3.46;73.32
67759;SHT31;54562;47.620;18.786;2023-04-03T02:57:57;3.44;73.47
67759;SHT31;54562;47.620;18.786;2023-04-03T03:01:07;3.40;73.57
67759;SHT31;54562;47.620;18.786;2023-04-03T03:04:15;3.34;73.59
67759;SHT31;54562;47.620;18.786;2023-04-03T03:07:25;3.31;73.83
67759;SHT31;54562;47.620;18.786;2023-04-03T03:10:33;3.26;73.83
67759;SHT31;54562;47.620;18.786;2023-04-03T03:13:42;3.18;73.93
67759;SHT31;54562;47.620;18.786;2023-04-03T03:16:51;3.11;74.17
67759;SHT31;54562;47.620;18.786;2023-04-03T03:19:59;3.03;74.33
67759;SHT31;54562;47.620;18.786;2023-04-03T03:23:08;2.95;74.46
67759;SHT31;54562;47.620;18.786;2023-04-03T03:26:16;2.88;74.57
67759;SHT31;54562;47.620;18.786;2023-04-03T03:29:24;2.83;74.78
67759;SHT31;54562;47.620;18.786;2023-04-03T03:32:34;2.75;74.73
67759;SHT31;54562;47.620;18.786;2023-04-03T03:35:42;2.69;74.84
67759;SHT31;54562;47.620;18.786;2023-04-03T03:38:50;2.66;75.02
67759;SHT31;54562;47.620;18.786;2023-04-03T03:41:59;2.62;75.13
67759;SHT31;54562;47.620;18.786;2023-04-03T03:45:08;2.58;75.15
67759;SHT31;54562;47.620;18.786;2023-04-03T03:48:17;2.54;75.20
67759;SHT31;54562;47.620;18.786;2023-04-03T03:51:26;2.52;75.21
67759;SHT31;54562;47.620;18.786;2023-04-03T03:54:34;2.52;75.24
67759;SHT31;54562;47.620;18.786;2023-04-03T03:57:43;2.50;75.26
67759;SHT31;54562;47.620;18.786;2023-04-03T04:00:51;2.50;75.27
67759;SHT31;54562;47.620;18.786;2023-04-03T04:04:00;2.49;75.34
67759;SHT31;54562;47.620;18.786;2023-04-03T04:07:08;2.46;75.45
67759;SHT31;54562;47.620;18.786;2023-04-03T04:10:16;2.43;75.61
67759;SHT31;54562;47.620;18.786;2023-04-03T04:13:24;2.39;75.62
67759;SHT31;54562;47.620;18.786;2023-04-03T04:16:32;2.34;75.85
67759;SHT31;54562;47.620;18.786;2023-04-03T04:19:41;2.31;75.94
67759;SHT31;54562;47.620;18.786;2023-04-03T04:22:49;2.28;76.03
67759;SHT31;54562;47.620;18.786;2023-04-03T04:25:57;2.27;76.08
67759;SHT31;54562;47.620;18.786;2023-04-03T04:29:09;2.24;76.18
67759;SHT31;54562;47.620;18.786;2023-04-03T04:32:17;2.23;76.32
67759;SHT31;54562;47.620;18.786;2023-04-03T04:35:27;2.21;76.30
67759;SHT31;54562;47.620;18.786;2023-04-03T04:38:36;2.21;76.35
67759;SHT31;54562;47.620;18.786;2023-04-03T04:41:43;2.20;76.63
67759;SHT31;54562;47.620;18.786;2023-04-03T04:44:54;2.20;76.88
67759;SHT31;54562;47.620;18.786;2023-04-03T04:48:02;2.21;76.82
67759;SHT31;54562;47.620;18.786;2023-04-03T04:51:11;2.20;76.86
67759;SHT31;54562;47.620;18.786;2023-04-03T04:54:20;2.20;76.73
67759;SHT31;54562;47.620;18.786;2023-04-03T04:57:28;2.23;76.77
67759;SHT31;54562;47.620;18.786;2023-04-03T05:00:37;2.25;76.89
67759;SHT31;54562;47.620;18.786;2023-04-03T05:03:45;2.26;76.91
67759;SHT31;54562;47.620;18.786;2023-04-03T05:06:54;2.29;76.91
67759;SHT31;54562;47.620;18.786;2023-04-03T05:10:03;2.33;76.89
67759;SHT31;54562;47.620;18.786;2023-04-03T05:13:13;2.40;77.00
67759;SHT31;54562;47.620;18.786;2023-04-03T05:16:22;2.52;77.08
67759;SHT31;54562;47.620;18.786;2023-04-03T05:19:31;2.64;76.97
67759;SHT31;54562;47.620;18.786;2023-04-03T05:22:39;2.74;76.88
67759;SHT31;54562;47.620;18.786;2023-04-03T05:25:47;2.82;76.84
67759;SHT31;54562;47.620;18.786;2023-04-03T05:28:55;2.92;76.76
67759;SHT31;54562;47.620;18.786;2023-04-03T05:32:04;3.05;76.63
67759;SHT31;54562;47.620;18.786;2023-04-03T05:35:13;3.21;76.61
67759;SHT31;54562;47.620;18.786;2023-04-03T05:38:25;3.32;76.35
67759;SHT31;54562;47.620;18.786;2023-04-03T05:41:34;3.39;76.28
67759;SHT31;54562;47.620;18.786;2023-04-03T05:44:43;3.47;75.95
67759;SHT31;54562;47.620;18.786;2023-04-03T05:47:54;3.53;75.86
67759;SHT31;54562;47.620;18.786;2023-04-03T05:51:02;3.58;75.68
67759;SHT31;54562;47.620;18.786;2023-04-03T05:54:12;3.64;75.47
67759;SHT31;54562;47.620;18.786;2023-04-03T05:57:26;3.69;75.50
67759;SHT31;54562;47.620;18.786;2023-04-03T06:00:34;3.78;75.51
67759;SHT31;54562;47.620;18.786;2023-04-03T06:03:43;3.93;75.50
67759;SHT31;54562;47.620;18.786;2023-04-03T06:06:53;4.08;75.49
67759;SHT31;54562;47.620;18.786;2023-04-03T06:10:02;4.22;75.20
67759;SHT31;54562;47.620;18.786;2023-04-03T06:13:12;4.30;74.81
67759;SHT31;54562;47.620;18.786;2023-04-03T06:16:20;4.37;74.41
67759;SHT31;54562;47.620;18.786;2023-04-03T06:19:28;4.43;74.41
67759;SHT31;54562;47.620;18.786;2023-04-03T06:22:36;4.53;74.45
67759;SHT31;54562;47.620;18.786;2023-04-03T06:25:45;4.63;74.38
67759;SHT31;54562;47.620;18.786;2023-04-03T06:28:54;4.74;74.32
67759;SHT31;54562;47.620;18.786;2023-04-03T06:32:03;4.86;74.24
67759;SHT31;54562;47.620;18.786;2023-04-03T06:35:13;5.00;74.05
67759;SHT31;54562;47.620;18.786;2023-04-03T06:38:21;5.17;73.85
67759;SHT31;54562;47.620;18.786;2023-04-03T06:41:29;5.30;73.76
67759;SHT31;54562;47.620;18.786;2023-04-03T06:44:39;5.32;73.12
67759;SHT31;54562;47.620;18.786;2023-04-03T06:47:47;5.25;72.96
67759;SHT31;54562;47.620;18.786;2023-04-03T06:50:55;5.24;72.90
67759;SHT31;54562;47.620;18.786;2023-04-03T06:54:04;5.29;72.97
67759;SHT31;54562;47.620;18.786;2023-04-03T06:57:13;5.40;72.83
67759;SHT31;54562;47.620;18.786;2023-04-03T07:00:22;5.53;72.75
67759;SHT31;54562;47.620;18.786;2023-04-03T07:03:31;5.70;72.09
67759;SHT31;54562;47.620;18.786;2023-04-03T07:06:40;5.84;71.53
67759;SHT31;54562;47.620;18.786;2023-04-03T07:09:48;5.90;71.15
67759;SHT31;54562;47.620;18.786;2023-04-03T07:12:57;6.00;71.13
67759;SHT31;54562;47.620;18.786;2023-04-03T07:16:07;6.17;71.11
67759;SHT31;54562;47.620;18.786;2023-04-03T07:19:15;6.41;70.65
67759;SHT31;54562;47.620;18.786;2023-04-03T07:22:24;6.51;70.24
67759;SHT31;54562;47.620;18.786;2023-04-03T07:25:32;6.51;69.73
67759;SHT31;54562;47.620;18.786;2023-04-03T07:28:41;6.51;69.43
67759;SHT31;54562;47.620;18.786;2023-04-03T07:31:50;6.49;69.15
67759;SHT31;54562;47.620;18.786;2023-04-03T07:34:59;6.47;69.33
67759;SHT31;54562;47.620;18.786;2023-04-03T07:38:10;6.51;69.36
67759;SHT31;54562;47.620;18.786;2023-04-03T07:41:20;6.56;68.93
67759;SHT31;54562;47.620;18.786;2023-04-03T07:44:30;6.59;68.78
67759;SHT31;54562;47.620;18.786;2023-04-03T07:47:39;6.64;68.71
67759;SHT31;54562;47.620;18.786;2023-04-03T07:50:47;6.72;68.61
67759;SHT31;54562;47.620;18.786;2023-04-03T07:53:56;6.78;67.87
67759;SHT31;54562;47.620;18.786;2023-04-03T07:57:04;6.85;67.77
67759;SHT31;54562;47.620;18.786;2023-04-03T08:00:13;6.95;67.70
67759;SHT31;54562;47.620;18.786;2023-04-03T08:03:22;7.09;67.79
67759;SHT31;54562;47.620;18.786;2023-04-03T08:06:32;7.24;66.99
67759;SHT31;54562;47.620;18.786;2023-04-03T08:09:49;7.37;66.83
67759;SHT31;54562;47.620;18.786;2023-04-03T08:12:58;7.56;67.23
67759;SHT31;54562;47.620;18.786;2023-04-03T08:16:08;7.70;66.20
67759;SHT31;54562;47.620;18.786;2023-04-03T08:19:20;7.74;65.32
67759;SHT31;54562;47.620;18.786;2023-04-03T08:22:29;7.74;65.50
67759;SHT31;54562;47.620;18.786;2023-04-03T08:25:39;7.76;65.13
67759;SHT31;54562;47.620;18.786;2023-04-03T08:28:48;7.79;64.38
67759;SHT31;54562;47.620;18.786;2023-04-03T08:31:57;7.80;64.16
67759;SHT31;54562;47.620;18.786;2023-04-03T08:35:05;7.87;64.13
67759;SHT31;54562;47.620;18.786;2023-04-03T08:38:16;7.94;64.18
67759;SHT31;54562;47.620;18.786;2023-04-03T08:41:27;8.03;64.16
67759;SHT31;54562;47.620;18.786;2023-04-03T08:44:45;8.13;63.58
67759;SHT31;54562;47.620;18.786;2023-04-03T08:48:05;8.21;63.25
67759;SHT31;54562;47.620;18.786;2023-04-03T08:51:20;8.23;63.00
67759;SHT31;54562;47.620;18.786;2023-04-03T08:54:32;8.26;63.26
67759;SHT31;54562;47.620;18.786;2023-04-03T08:57:53;8.45;63.60
67759;SHT31;54562;47.620;18.786;2023-04-03T09:01:14;8.69;63.64
67759;SHT31;54562;47.620;18.786;2023-04-03T09:04:28;8.94;63.18
67759;SHT31;54562;47.620;18.786;2023-04-03T09:07:42;9.07;61.47
67759;SHT31;54562;47.620;18.786;2023-04-03T09:11:03;9.15;61.83
67759;SHT31;54562;47.620;18.786;2023-04-03T09:14:28;9.64;62.57
67759;SHT31;54562;47.620;18.786;2023-04-03T09:17:52;9.97;61.40
67759;SHT31;54562;47.620;18.786;2023-04-03T09:21:12;10.39;60.63
67759;SHT31;54562;47.620;18.786;2023-04-03T09:24:29;10.82;60.49
67759;SHT31;54562;47.620;18.786;2023-04-03T09:27:40;10.92;58.78
67759;SHT31;54562;47.620;18.786;2023-04-03T09:30:50;11.12;58.71
67759;SHT31;54562;47.620;18.786;2023-04-03T09:33:58;11.02;57.53
67759;SHT31;54562;47.620;18.786;2023-04-03T09:37:12;10.76;57.33
67759;SHT31;54562;47.620;18.786;2023-04-03T09:43:51;10.29;56.96
67759;SHT31;54562;47.620;18.786;2023-04-03T09:47:00;10.19;57.63
67759;SHT31;54562;47.620;18.786;2023-04-03T09:50:31;10.41;57.37
67759;SHT31;54562;47.620;18.786;2023-04-03T09:53:41;10.40;56.63
67759;SHT31;54562;47.620;18.786;2023-04-03T09:56:51;10.29;56.05
67759;SHT31;54562;47.620;18.786;2023-04-03T10:00:03;10.17;55.83
67759;SHT31;54562;47.620;18.786;2023-04-03T10:03:28;10.07;56.07
67759;SHT31;54562;47.620;18.786;2023-04-03T10:06:40;9.98;56.17
67759;SHT31;54562;47.620;18.786;2023-04-03T10:09:55;9.88;55.43
67759;SHT31;54562;47.620;18.786;2023-04-03T10:13:07;9.77;55.74
67759;SHT31;54562;47.620;18.786;2023-04-03T10:16:29;9.70;55.55
67759;SHT31;54562;47.620;18.786;2023-04-03T10:19:45;9.69;55.92
67759;SHT31;54562;47.620;18.786;2023-04-03T10:23:02;9.68;55.63
67759;SHT31;54562;47.620;18.786;2023-04-03T10:26:26;9.73;55.99
67759;SHT31;54562;47.620;18.786;2023-04-03T10:29:48;9.85;56.36
67759;SHT31;54562;47.620;18.786;2023-04-03T10:33:09;9.97;55.63
67759;SHT31;54562;47.620;18.786;2023-04-03T10:36:39;9.96;55.44
67759;SHT31;54562;47.620;18.786;2023-04-03T10:39:57;9.92;55.70
67759;SHT31;54562;47.620;18.786;2023-04-03T10:43:29;9.83;55.24
67759;SHT31;54562;47.620;18.786;2023-04-03T10:46:48;9.72;55.30
67759;SHT31;54562;47.620;18.786;2023-04-03T10:50:06;9.69;55.53
67759;SHT31;54562;47.620;18.786;2023-04-03T10:53:36;9.67;54.84
67759;SHT31;54562;47.620;18.786;2023-04-03T10:56:55;9.63;55.15
67759;SHT31;54562;47.620;18.786;2023-04-03T11:00:18;9.59;54.51
67759;SHT31;54562;47.620;18.786;2023-04-03T11:03:32;9.56;54.68
67759;SHT31;54562;47.620;18.786;2023-04-03T11:06:45;9.54;54.71
67759;SHT31;54562;47.620;18.786;2023-04-03T11:10:03;9.55;55.09
67759;SHT31;54562;47.620;18.786;2023-04-03T11:13:23;9.52;54.73
67759;SHT31;54562;47.620;18.786;2023-04-03T11:16:41;9.52;55.21
67759;SHT31;54562;47.620;18.786;2023-04-03T11:19:59;9.53;55.03
67759;SHT31;54562;47.620;18.786;2023-04-03T11:23:17;9.58;55.55
67759;SHT31;54562;47.620;18.786;2023-04-03T11:26:40;9.63;54.80
67759;SHT31;54562;47.620;18.786;2023-04-03T11:29:51;9.64;55.47
67759;SHT31;54562;47.620;18.786;2023-04-03T11:33:08;9.63;54.83
67759;SHT31;54562;47.620;18.786;2023-04-03T11:36:33;9.58;54.99
67759;SHT31;54562;47.620;18.786;2023-04-03T11:39:50;9.55;55.00
67759;SHT31;54562;47.620;18.786;2023-04-03T11:43:06;9.54;55.13
67759;SHT31;54562;47.620;18.786;2023-04-03T11:50:01;9.58;55.14
67759;SHT31;54562;47.620;18.786;2023-04-03T11:53:33;9.61;54.48
67759;SHT31;54562;47.620;18.786;2023-04-03T11:56:44;9.62;54.58
67759;SHT31;54562;47.620;18.786;2023-04-03T11:59:52;9.66;54.89
67759;SHT31;54562;47.620;18.786;2023-04-03T12:03:00;9.71;54.40
67759;SHT31;54562;47.620;18.786;2023-04-03T12:10:27;9.98;54.40
67759;SHT31;54562;47.620;18.786;2023-04-03T12:13:35;10.09;53.13
67759;SHT31;54562;47.620;18.786;2023-04-03T12:16:46;10.15;53.47
67759;SHT31;54562;47.620;18.786;2023-04-03T12:19:56;10.20;53.38
67759;SHT31;54562;47.620;18.786;2023-04-03T12:26:38;10.15;52.97
67759;SHT31;54562;47.620;18.786;2023-04-03T12:33:30;10.01;53.95
67759;SHT31;54562;47.620;18.786;2023-04-03T12:37:01;9.93;53.73
67759;SHT31;54562;47.620;18.786;2023-04-03T12:40:25;9.88;53.38
67759;SHT31;54562;47.620;18.786;2023-04-03T12:43:43;9.93;53.35
67759;SHT31;54562;47.620;18.786;2023-04-03T12:47:27;10.05;53.81
67759;SHT31;54562;47.620;18.786;2023-04-03T12:50:41;10.18;53.05
67759;SHT31;54562;47.620;18.786;2023-04-03T12:53:55;10.23;52.65
67759;SHT31;54562;47.620;18.786;2023-04-03T12:57:10;10.22;52.74
67759;SHT31;54562;47.620;18.786;2023-04-03T13:00:28;10.15;52.90
67759;SHT31;54562;47.620;18.786;2023-04-03T13:03:43;10.06;52.80
67759;SHT31;54562;47.620;18.786;2023-04-03T13:06:55;10.03;52.61
67759;SHT31;54562;47.620;18.786;2023-04-03T13:10:14;10.02;52.62
67759;SHT31;54562;47.620;18.786;2023-04-03T13:13:24;10.01;52.50
67759;SHT31;54562;47.620;18.786;2023-04-03T13:16:32;9.98;53.04
67759;SHT31;54562;47.620;18.786;2023-04-03T13:19:44;9.95;52.88
67759;SHT31;54562;47.620;18.786;2023-04-03T13:22:55;9.85;52.69
67759;SHT31;54562;47.620;18.786;2023-04-03T13:26:08;9.75;52.52
67759;SHT31;54562;47.620;18.786;2023-04-03T13:29:21;9.66;52.47
67759;SHT31;54562;47.620;18.786;2023-04-03T13:32:34;9.63;53.01
67759;SHT31;54562;47.620;18.786;2023-04-03T13:35:42;9.63;53.50
67759;SHT31;54562;47.620;18.786;2023-04-03T13:38:58;9.63;53.26
67759;SHT31;54562;47.620;18.786;2023-04-03T13:42:16;9.59;53.88
67759;SHT31;54562;47.620;18.786;2023-04-03T13:45:30;9.52;53.67
67759;SHT31;54562;47.620;18.786;2023-04-03T13:48:41;9.42;53.38
67759;SHT31;54562;47.620;18.786;2023-04-03T13:51:52;9.35;53.36
67759;SHT31;54562;47.620;18.786;2023-04-03T13:55:16;9.28;53.64
67759;SHT31;54562;47.620;18.786;2023-04-03T13:58:29;9.20;53.14
67759;SHT31;54562;47.620;18.786;2023-04-03T14:01:43;9.11;52.95
67759;SHT31;54562;47.620;18.786;2023-04-03T14:04:55;9.05;53.18
67759;SHT31;54562;47.620;18.786;2023-04-03T14:08:07;9.00;53.58
67759;SHT31;54562;47.620;18.786;2023-04-03T14:11:16;8.95;53.51
67759;SHT31;54562;47.620;18.786;2023-04-03T14:14:29;8.85;52.88
67759;SHT31;54562;47.620;18.786;2023-04-03T14:17:41;8.73;52.53
67759;SHT31;54562;47.620;18.786;2023-04-03T14:20:50;8.59;52.42
67759;SHT31;54562;47.620;18.786;2023-04-03T14:23:58;8.47;52.63
67759;SHT31;54562;47.620;18.786;2023-04-03T14:27:08;8.41;52.58
67759;SHT31;54562;47.620;18.786;2023-04-03T14:30:23;8.36;52.91
67759;SHT31;54562;47.620;18.786;2023-04-03T14:33:37;8.29;52.91
67759;SHT31;54562;47.620;18.786;2023-04-03T14:36:45;8.25;52.99
67759;SHT31;54562;47.620;18.786;2023-04-03T14:39:56;8.21;53.12
67759;SHT31;54562;47.620;18.786;2023-04-03T14:43:09;8.17;53.07
67759;SHT31;54562;47.620;18.786;2023-04-03T14:46:20;8.13;52.83
67759;SHT31;54562;47.620;18.786;2023-04-03T14:49:50;8.09;52.89
67759;SHT31;54562;47.620;18.786;2023-04-03T14:53:00;8.07;52.69
67759;SHT31;54562;47.620;18.786;2023-04-03T14:56:12;8.03;52.47
67759;SHT31;54562;47.620;18.786;2023-04-03T14:59:25;8.00;52.93
67759;SHT31;54562;47.620;18.786;2023-04-03T15:02:36;7.99;53.13
67759;SHT31;54562;47.620;18.786;2023-04-03T15:05:46;7.98;52.85
67759;SHT31;54562;47.620;18.786;2023-04-03T15:08:55;7.99;53.31
67759;SHT31;54562;47.620;18.786;2023-04-03T15:12:03;7.98;52.96
67759;SHT31;54562;47.620;18.786;2023-04-03T15:15:14;7.96;52.72
67759;SHT31;54562;47.620;18.786;2023-04-03T15:18:25;7.93;52.40
67759;SHT31;54562;47.620;18.786;2023-04-03T15:21:40;7.91;52.47
67759;SHT31;54562;47.620;18.786;2023-04-03T15:24:49;7.88;52.72
67759;SHT31;54562;47.620;18.786;2023-04-03T15:27:57;7.85;52.75
67759;SHT31;54562;47.620;18.786;2023-04-03T15:31:06;7.80;52.82
67759;SHT31;54562;47.620;18.786;2023-04-03T15:34:15;7.74;52.55
67759;SHT31;54562;47.620;18.786;2023-04-03T15:37:25;7.71;52.31
67759;SHT31;54562;47.620;18.786;2023-04-03T15:40:33;7.66;52.64
67759;SHT31;54562;47.620;18.786;2023-04-03T15:43:42;7.64;52.27
67759;SHT31;54562;47.620;18.786;2023-04-03T15:46:50;7.60;52.08
67759;SHT31;54562;47.620;18.786;2023-04-03T15:49:58;7.56;51.67
67759;SHT31;54562;47.620;18.786;2023-04-03T15:53:09;7.52;51.65
67759;SHT31;54562;47.620;18.786;2023-04-03T15:56:17;7.46;51.93
67759;SHT31;54562;47.620;18.786;2023-04-03T15:59:25;7.42;51.90
67759;SHT31;54562;47.620;18.786;2023-04-03T16:02:36;7.37;51.95
67759;SHT31;54562;47.620;18.786;2023-04-03T16:05:44;7.33;51.90
67759;SHT31;54562;47.620;18.786;2023-04-03T16:08:53;7.31;52.00
67759;SHT31;54562;47.620;18.786;2023-04-03T16:12:02;7.27;52.01
67759;SHT31;54562;47.620;18.786;2023-04-03T16:15:11;7.22;52.38
67759;SHT31;54562;47.620;18.786;2023-04-03T16:18:19;7.18;52.17
67759;SHT31;54562;47.620;18.786;2023-04-03T16:21:28;7.13;51.48
67759;SHT31;54562;47.620;18.786;2023-04-03T16:24:36;7.07;51.53
67759;SHT31;54562;47.620;18.786;2023-04-03T16:27:44;7.02;51.87
67759;SHT31;54562;47.620;18.786;2023-04-03T16:30:53;6.95;51.79
67759;SHT31;54562;47.620;18.786;2023-04-03T16:34:01;6.91;51.77
67759;SHT31;54562;47.620;18.786;2023-04-03T16:37:10;6.87;51.59
67759;SHT31;54562;47.620;18.786;2023-04-03T16:40:18;6.86;52.20
67759;SHT31;54562;47.620;18.786;2023-04-03T16:43:26;6.83;52.31
67759;SHT31;54562;47.620;18.786;2023-04-03T16:46:34;6.80;52.54
67759;SHT31;54562;47.620;18.786;2023-04-03T16:49:42;6.78;53.00
67759;SHT31;54562;47.620;18.786;2023-04-03T16:52:52;6.80;53.24
67759;SHT31;54562;47.620;18.786;2023-04-03T16:56:00;6.84;53.03
67759;SHT31;54562;47.620;18.786;2023-04-03T16:59:09;6.87;53.25
67759;SHT31;54562;47.620;18.786;2023-04-03T17:02:17;6.87;53.30
67759;SHT31;54562;47.620;18.786;2023-04-03T17:05:28;6.86;53.88
67759;SHT31;54562;47.620;18.786;2023-04-03T17:08:36;6.83;53.92
67759;SHT31;54562;47.620;18.786;2023-04-03T17:11:44;6.81;53.45
67759;SHT31;54562;47.620;18.786;2023-04-03T17:14:52;6.81;53.31
67759;SHT31;54562;47.620;18.786;2023-04-03T17:18:02;6.82;53.67
67759;SHT31;54562;47.620;18.786;2023-04-03T17:21:11;6.79;54.22
67759;SHT31;54562;47.620;18.786;2023-04-03T17:24:20;6.77;54.79
67759;SHT31;54562;47.620;18.786;2023-04-03T17:27:30;6.74;54.77
67759;SHT31;54562;47.620;18.786;2023-04-03T17:30:38;6.72;55.00
67759;SHT31;54562;47.620;18.786;2023-04-03T17:33:46;6.71;55.89
67759;SHT31;54562;47.620;18.786;2023-04-03T17:36:55;6.66;56.23
67759;SHT31;54562;47.620;18.786;2023-04-03T17:40:03;6.64;56.77
67759;SHT31;54562;47.620;18.786;2023-04-03T17:43:16;6.59;57.31
67759;SHT31;54562;47.620;18.786;2023-04-03T17:46:25;6.54;56.55
67759;SHT31;54562;47.620;18.786;2023-04-03T17:49:37;6.48;56.64
67759;SHT31;54562;47.620;18.786;2023-04-03T17:52:46;6.44;56.69
67759;SHT31;54562;47.620;18.786;2023-04-03T17:55:54;6.40;56.73
67759;SHT31;54562;47.620;18.786;2023-04-03T17:59:02;6.36;56.82
67759;SHT31;54562;47.620;18.786;2023-04-03T18:02:11;6.35;56.96
67759;SHT31;54562;47.620;18.786;2023-04-03T18:05:19;6.34;56.27
67759;SHT31;54562;47.620;18.786;2023-04-03T18:08:31;6.36;56.09
67759;SHT31;54562;47.620;18.786;2023-04-03T18:11:42;6.37;55.30
67759;SHT31;54562;47.620;18.786;2023-04-03T18:14:52;6.40;55.67
67759;SHT31;54562;47.620;18.786;2023-04-03T18:18:01;6.41;55.48
67759;SHT31;54562;47.620;18.786;2023-04-03T18:21:09;6.42;55.34
67759;SHT31;54562;47.620;18.786;2023-04-03T18:24:19;6.42;55.23
67759;SHT31;54562;47.620;18.786;2023-04-03T18:27:30;6.42;55.14
67759;SHT31;54562;47.620;18.786;2023-04-03T18:30:40;6.41;55.14
67759;SHT31;54562;47.620;18.786;2023-04-03T18:33:49;6.40;54.81
67759;SHT31;54562;47.620;18.786;2023-04-03T18:37:00;6.39;54.57
67759;SHT31;54562;47.620;18.786;2023-04-03T18:40:11;6.38;54.49
67759;SHT31;54562;47.620;18.786;2023-04-03T18:43:20;6.33;53.75
67759;SHT31;54562;47.620;18.786;2023-04-03T18:46:30;6.28;54.32
67759;SHT31;54562;47.620;18.786;2023-04-03T18:49:44;6.28;54.66
67759;SHT31;54562;47.620;18.786;2023-04-03T18:52:54;6.26;54.67
67759;SHT31;54562;47.620;18.786;2023-04-03T18:56:03;6.23;53.96
67759;SHT31;54562;47.620;18.786;2023-04-03T18:59:12;6.16;53.60
67759;SHT31;54562;47.620;18.786;2023-04-03T19:02:20;6.11;54.27
67759;SHT31;54562;47.620;18.786;2023-04-03T19:05:29;6.08;54.33
67759;SHT31;54562;47.620;18.786;2023-04-03T19:08:38;6.07;54.44
67759;SHT31;54562;47.620;18.786;2023-04-03T19:11:47;6.03;54.41
67759;SHT31;54562;47.620;18.786;2023-04-03T19:14:55;5.98;54.47
67759;SHT31;54562;47.620;18.786;2023-04-03T19:18:03;5.91;54.66
67759;SHT31;54562;47.620;18.786;2023-04-03T19:21:12;5.83;54.59
67759;SHT31;54562;47.620;18.786;2023-04-03T19:24:20;5.77;54.38
67759;SHT31;54562;47.620;18.786;2023-04-03T19:27:29;5.75;55.68
67759;SHT31;54562;47.620;18.786;2023-04-03T19:30:38;5.73;55.09
67759;SHT31;54562;47.620;18.786;2023-04-03T19:33:50;5.73;55.10
67759;SHT31;54562;47.620;18.786;2023-04-03T19:36:59;5.72;55.05
67759;SHT31;54562;47.620;18.786;2023-04-03T19:40:10;5.71;54.49
67759;SHT31;54562;47.620;18.786;2023-04-03T19:43:18;5.67;54.38
67759;SHT31;54562;47.620;18.786;2023-04-03T19:46:27;5.65;54.25
67759;SHT31;54562;47.620;18.786;2023-04-03T19:49:36;5.60;53.51
67759;SHT31;54562;47.620;18.786;2023-04-03T19:52:44;5.49;53.21
67759;SHT31;54562;47.620;18.786;2023-04-03T19:55:52;5.43;53.69
67759;SHT31;54562;47.620;18.786;2023-04-03T19:59:01;5.40;54.12
67759;SHT31;54562;47.620;18.786;2023-04-03T20:02:10;5.38;54.21
67759;SHT31;54562;47.620;18.786;2023-04-03T20:05:18;5.36;54.42
67759;SHT31;54562;47.620;18.786;2023-04-03T20:08:27;5.34;54.53
67759;SHT31;54562;47.620;18.786;2023-04-03T20:11:35;5.32;54.40
67759;SHT31;54562;47.620;18.786;2023-04-03T20:14:45;5.30;54.61
67759;SHT31;54562;47.620;18.786;2023-04-03T20:17:54;5.26;54.22
67759;SHT31;54562;47.620;18.786;2023-04-03T20:21:03;5.18;53.47
67759;SHT31;54562;47.620;18.786;2023-04-03T20:24:12;5.09;52.63
67759;SHT31;54562;47.620;18.786;2023-04-03T20:27:21;5.00;52.70